Terminal Aerodrome Forecast
Issued by NWS

Home | Current Version | Previous Version | Text Only | Print | Product List | Glossary On
Versions: 1 2 3 4 5 6 7 8 9 10 11 12
000
FTUS45 KABQ 011132
TAFGUP
TAF
KGUP 011132Z 0112/0212 VRB03KT P6SM SKC
     FM011900 26008KT P6SM SCT250
     FM012200 28009KT P6SM VCTS BKN080CB
      TEMPO 0122/0201 VRB25G35KT -TSRA BKN070CB
     FM020100 22012KT P6SM SCT150
     FM020500 20007KT P6SM SCT120=

USA.gov is the U.S. government's official web portal to all federal, state and local government web resources and services.